Time;durP1;ratioP1;P1;durP2;ratioP2;P2;SDS_P1;SDS_P2;PMS_P1;PMS_P2;Temp;Humidity;BMP_temperature;BMP_pressure;BME280_temperature;BME280_humidity;BME280_pressure;Samples;Min_cycle;Max_cycle;Signal;HPM_P1;HPM_P2
2022/08/15 00:00:20;;;;;;;5.10;4.70;;;23.20;63.10;;;;;;5110450;28;20845;-84
2022/08/15 00:02:48;;;;;;;5.60;5.20;;;23.10;64.30;;;;;;5118283;28;20481;-84
2022/08/15 00:05:20;;;;;;;6.27;5.70;;;23.00;65.10;;;;;;5110912;28;20469;-83
2022/08/15 00:07:48;;;;;;;6.77;5.13;;;22.90;67.90;;;;;;5110350;28;20445;-83
2022/08/15 00:10:15;;;;;;;5.23;4.80;;;22.90;68.80;;;;;;5116377;28;20505;-83
2022/08/15 00:12:42;;;;;;;5.00;4.57;;;22.80;70.80;;;;;;5108203;28;20445;-83
2022/08/15 00:15:12;;;;;;;5.87;5.47;;;22.60;70.20;;;;;;5107099;28;20473;-84
2022/08/15 00:17:42;;;;;;;5.80;5.40;;;22.50;70.90;;;;;;5108072;28;20471;-84
2022/08/15 00:20:11;;;;;;;6.10;5.70;;;22.50;72.50;;;;;;5108282;28;20506;-84
2022/08/15 00:22:46;;;;;;;4.80;4.43;;;22.60;74.20;;;;;;5108927;28;20804;-84
2022/08/15 00:25:13;;;;;;;6.53;5.67;;;22.60;74.60;;;;;;5111174;28;20497;-84
2022/08/15 00:27:40;;;;;;;5.73;5.27;;;22.60;75.60;;;;;;5110108;28;20449;-84
2022/08/15 00:30:08;;;;;;;5.63;5.10;;;22.50;75.20;;;;;;5114800;28;20457;-84
2022/08/15 00:32:36;;;;;;;7.90;5.97;;;22.50;75.60;;;;;;5105531;28;20449;-84
2022/08/15 00:35:04;;;;;;;5.53;5.13;;;22.50;75.40;;;;;;5106399;28;20474;-84
2022/08/15 00:37:31;;;;;;;6.10;5.70;;;22.50;74.90;;;;;;5109501;28;20442;-83
2022/08/15 00:39:59;;;;;;;5.80;5.30;;;22.40;75.30;;;;;;5109320;28;20842;-84
2022/08/15 00:42:27;;;;;;;5.40;5.00;;;22.50;76.00;;;;;;5110899;28;20484;-84
2022/08/15 00:44:56;;;;;;;5.77;5.40;;;22.50;76.20;;;;;;5106205;28;20527;-84
2022/08/15 00:47:24;;;;;;;5.97;5.57;;;22.50;76.40;;;;;;5110004;28;20446;-83
2022/08/15 00:49:50;;;;;;;5.57;5.17;;;22.30;77.20;;;;;;5106594;28;20452;-84
2022/08/15 00:52:22;;;;;;;5.70;5.30;;;22.20;78.70;;;;;;5109783;28;20457;-83
2022/08/15 00:54:55;;;;;;;6.50;6.10;;;22.30;78.40;;;;;;5103053;28;20457;-84
2022/08/15 00:57:25;;;;;;;5.67;5.37;;;22.30;78.90;;;;;;5108065;28;20451;-84
2022/08/15 00:59:57;;;;;;;6.20;5.77;;;22.40;79.20;;;;;;5104086;28;20438;-83
2022/08/15 01:02:28;;;;;;;7.60;7.10;;;22.30;79.80;;;;;;5107825;28;20474;-84
2022/08/15 01:04:55;;;;;;;5.20;4.90;;;22.10;80.60;;;;;;5106369;28;20454;-84
2022/08/15 01:07:23;;;;;;;6.70;6.10;;;22.10;81.70;;;;;;5118482;28;20446;-82
2022/08/15 01:09:51;;;;;;;6.00;5.60;;;22.10;82.20;;;;;;5117807;28;20510;-84
2022/08/15 01:12:20;;;;;;;5.70;5.23;;;22.00;83.20;;;;;;5117600;28;20441;-84
2022/08/15 01:14:53;;;;;;;5.07;4.70;;;22.00;84.00;;;;;;5118412;28;20487;-83
2022/08/15 01:17:21;;;;;;;5.97;5.57;;;22.10;84.30;;;;;;5118044;28;20437;-84
2022/08/15 01:19:53;;;;;;;6.43;6.03;;;22.10;84.50;;;;;;5117955;28;20457;-83
2022/08/15 01:22:37;;;;;;;5.87;5.37;;;22.20;84.70;;;;;;5117130;28;20551;-84
2022/08/15 01:25:08;;;;;;;5.87;5.47;;;22.10;86.00;;;;;;5117316;28;20510;-84
2022/08/15 01:27:41;;;;;;;6.03;5.50;;;22.10;86.90;;;;;;5117192;28;20460;-84
2022/08/15 01:30:12;;;;;;;6.97;6.47;;;22.00;87.80;;;;;;5117136;28;21053;-84
2022/08/15 01:32:38;;;;;;;6.50;6.00;;;22.10;89.10;;;;;;5116474;28;20464;-84
2022/08/15 01:35:06;;;;;;;5.83;5.33;;;22.00;90.10;;;;;;5117025;28;20481;-84
2022/08/15 01:37:33;;;;;;;5.47;5.07;;;21.90;90.80;;;;;;5116399;28;20452;-84
2022/08/15 01:40:05;;;;;;;6.10;5.60;;;21.90;91.00;;;;;;5117167;28;20446;-84
2022/08/15 01:42:38;;;;;;;6.03;5.53;;;21.90;91.20;;;;;;5116675;28;20480;-84
2022/08/15 01:45:11;;;;;;;5.07;4.73;;;21.80;91.70;;;;;;5116886;28;20485;-84
2022/08/15 01:47:43;;;;;;;6.67;6.17;;;21.80;92.30;;;;;;5116436;28;20441;-84
2022/08/15 01:50:14;;;;;;;5.87;5.50;;;21.70;92.70;;;;;;5117402;28;20460;-84
2022/08/15 01:52:46;;;;;;;5.80;5.33;;;21.70;93.20;;;;;;5116995;28;20445;-84
2022/08/15 01:55:16;;;;;;;9.23;6.00;;;21.60;93.80;;;;;;5116446;28;20463;-84
2022/08/15 01:57:44;;;;;;;5.97;5.57;;;21.60;94.40;;;;;;5116789;28;20472;-83
2022/08/15 02:00:12;;;;;;;8.20;5.20;;;21.40;95.00;;;;;;5116715;28;20450;-84
2022/08/15 02:02:40;;;;;;;5.93;5.50;;;21.30;95.90;;;;;;5116996;28;20481;-84
2022/08/15 02:05:07;;;;;;;5.23;4.83;;;21.30;96.00;;;;;;5116374;28;20480;-83
2022/08/15 02:07:34;;;;;;;4.77;4.47;;;21.30;96.10;;;;;;5116897;28;20455;-84
2022/08/15 02:10:01;;;;;;;5.90;5.40;;;21.30;96.50;;;;;;5116564;28;20529;-84
2022/08/15 02:12:30;;;;;;;4.67;4.33;;;21.30;96.80;;;;;;5116468;28;20443;-84
2022/08/15 02:15:00;;;;;;;5.57;5.17;;;21.20;96.90;;;;;;5115643;28;20483;-84
2022/08/15 02:17:27;;;;;;;5.10;4.80;;;21.10;97.20;;;;;;5115793;28;20508;-84
2022/08/15 02:19:53;;;;;;;5.23;4.73;;;21.10;97.40;;;;;;5116603;28;20454;-84
2022/08/15 02:22:23;;;;;;;4.30;4.00;;;21.10;97.60;;;;;;5115940;28;20482;-84
2022/08/15 02:24:50;;;;;;;4.90;4.60;;;21.10;97.70;;;;;;5115447;28;20468;-84
2022/08/15 02:27:17;;;;;;;5.00;4.60;;;21.10;97.60;;;;;;5115684;28;20448;-84
2022/08/15 02:29:44;;;;;;;5.00;4.60;;;21.20;97.70;;;;;;5116191;28;20450;-84
2022/08/15 02:32:18;;;;;;;5.70;5.10;;;21.10;97.80;;;;;;5116642;28;20968;-84
2022/08/15 02:34:47;;;;;;;4.57;4.17;;;21.10;98.00;;;;;;5115950;28;20472;-83
2022/08/15 02:37:18;;;;;;;4.80;4.40;;;21.30;97.90;;;;;;5116288;28;20460;-84
2022/08/15 02:39:47;;;;;;;5.63;5.23;;;21.20;98.00;;;;;;5116050;28;20453;-84
2022/08/15 02:42:15;;;;;;;4.83;4.53;;;21.10;98.20;;;;;;5116164;28;20488;-84
2022/08/15 02:44:42;;;;;;;6.17;4.93;;;21.20;98.20;;;;;;5116616;28;21005;-85
2022/08/15 02:47:10;;;;;;;6.53;5.10;;;21.10;98.60;;;;;;5120387;28;20437;-84
2022/08/15 02:49:38;;;;;;;5.70;5.20;;;21.10;98.90;;;;;;5121531;28;20453;-85
2022/08/15 02:52:06;;;;;;;5.10;4.80;;;21.10;98.80;;;;;;5119627;28;20534;-85
2022/08/15 02:54:33;;;;;;;5.70;5.20;;;20.90;99.40;;;;;;5119635;28;20536;-85
2022/08/15 02:57:00;;;;;;;5.90;5.40;;;20.80;99.90;;;;;;5119884;28;20971;-85
2022/08/15 02:59:27;;;;;;;5.77;5.13;;;20.80;99.90;;;;;;5120219;28;20448;-85
2022/08/15 03:01:55;;;;;;;5.03;4.73;;;20.80;99.90;;;;;;5118727;28;20478;-85
2022/08/15 03:04:23;;;;;;;5.50;5.07;;;20.90;99.90;;;;;;5119203;28;20481;-85
2022/08/15 03:06:53;;;;;;;5.17;4.77;;;20.90;99.90;;;;;;5120315;28;20457;-85
2022/08/15 03:09:22;;;;;;;4.67;4.37;;;20.90;99.90;;;;;;5120542;28;20434;-85
2022/08/15 03:11:49;;;;;;;4.80;4.50;;;20.90;99.90;;;;;;5120022;28;20492;-85
2022/08/15 03:14:19;;;;;;;4.17;3.87;;;20.90;99.90;;;;;;5120226;28;20469;-85
2022/08/15 03:16:48;;;;;;;4.67;4.37;;;20.90;99.90;;;;;;5119485;28;20809;-85
2022/08/15 03:19:18;;;;;;;3.90;3.70;;;21.00;99.90;;;;;;5119464;28;20509;-85
2022/08/15 03:21:45;;;;;;;4.93;3.93;;;20.90;99.90;;;;;;5120676;28;20545;-85
2022/08/15 03:24:14;;;;;;;4.40;4.07;;;20.80;99.90;;;;;;5120157;28;20473;-85
2022/08/15 03:26:46;;;;;;;3.70;3.40;;;20.70;99.90;;;;;;5122007;28;20451;-85
2022/08/15 03:29:16;;;;;;;3.47;3.27;;;20.70;99.90;;;;;;5125654;28;20462;-85
2022/08/15 03:31:43;;;;;;;6.40;3.67;;;20.60;99.90;;;;;;5117143;28;20489;-83
2022/08/15 03:34:11;;;;;;;5.70;3.60;;;20.70;99.90;;;;;;5113217;28;20464;-83
2022/08/15 03:36:40;;;;;;;4.30;3.90;;;20.60;99.90;;;;;;5114816;28;20475;-83
2022/08/15 03:39:06;;;;;;;4.20;3.90;;;20.50;99.90;;;;;;5114502;28;20483;-83
2022/08/15 03:41:35;;;;;;;4.20;3.80;;;20.40;99.90;;;;;;5114091;28;21002;-83
2022/08/15 03:44:02;;;;;;;5.47;4.97;;;20.40;99.90;;;;;;5114290;28;20496;-83
2022/08/15 03:46:29;;;;;;;4.63;4.33;;;20.40;99.90;;;;;;5110511;28;20447;-83
2022/08/15 03:48:57;;;;;;;4.07;3.77;;;20.40;99.90;;;;;;5118827;28;20448;-83
2022/08/15 03:51:25;;;;;;;4.10;3.80;;;20.20;99.90;;;;;;5112233;28;20475;-83
2022/08/15 03:53:55;;;;;;;6.20;4.90;;;20.10;99.90;;;;;;5114265;28;20470;-83
2022/08/15 03:56:25;;;;;;;4.67;4.27;;;20.10;99.90;;;;;;5113836;28;20843;-83
2022/08/15 03:58:55;;;;;;;4.80;4.10;;;20.10;99.90;;;;;;5114424;28;20436;-83
2022/08/15 04:01:25;;;;;;;4.57;3.83;;;20.00;99.90;;;;;;5116272;28;20444;-83
2022/08/15 04:03:52;;;;;;;4.77;4.30;;;20.00;99.90;;;;;;5114598;28;20467;-82
2022/08/15 04:06:22;;;;;;;4.63;4.20;;;20.00;99.90;;;;;;5117164;28;20456;-82
2022/08/15 04:08:51;;;;;;;4.17;3.87;;;19.90;99.90;;;;;;5119067;28;20461;-83
2022/08/15 04:11:19;;;;;;;4.20;3.90;;;19.90;99.90;;;;;;5117804;28;20448;-83
2022/08/15 04:13:46;;;;;;;4.53;4.20;;;19.90;99.90;;;;;;5110604;28;20997;-83
2022/08/15 04:16:15;;;;;;;4.50;4.20;;;20.00;99.90;;;;;;5110683;28;20454;-83
2022/08/15 04:18:42;;;;;;;3.93;3.60;;;20.00;99.90;;;;;;5126288;28;20451;-83
2022/08/15 04:21:11;;;;;;;5.37;4.97;;;20.10;99.90;;;;;;5126530;28;20455;-83
2022/08/15 04:23:39;;;;;;;5.30;3.60;;;20.00;99.90;;;;;;5127015;28;20465;-83
2022/08/15 04:26:06;;;;;;;4.37;4.07;;;20.00;99.90;;;;;;5123308;28;20450;-83
2022/08/15 04:28:33;;;;;;;4.60;4.20;;;20.00;99.90;;;;;;5120997;28;20450;-83
2022/08/15 04:31:03;;;;;;;4.73;4.20;;;20.00;99.90;;;;;;5120002;28;20451;-83
2022/08/15 04:33:33;;;;;;;4.63;4.33;;;20.10;99.90;;;;;;5122938;28;21018;-83
2022/08/15 04:36:02;;;;;;;4.80;4.40;;;19.90;99.90;;;;;;5122218;28;20829;-83
2022/08/15 04:38:31;;;;;;;5.60;5.10;;;19.80;99.90;;;;;;5121692;28;20448;-83
2022/08/15 04:40:57;;;;;;;5.97;4.50;;;19.90;99.90;;;;;;5120689;28;20465;-83
2022/08/15 04:43:24;;;;;;;4.80;4.40;;;20.00;99.90;;;;;;5122142;28;20449;-83
2022/08/15 04:45:52;;;;;;;4.63;4.33;;;19.80;99.90;;;;;;5122286;28;20463;-83
2022/08/15 04:48:22;;;;;;;4.97;4.43;;;19.80;99.90;;;;;;5121165;28;20821;-83
2022/08/15 04:50:53;;;;;;;5.30;4.93;;;19.80;99.90;;;;;;5123142;28;20453;-83
2022/08/15 04:53:24;;;;;;;4.43;4.03;;;19.70;99.90;;;;;;5123773;28;20484;-83
2022/08/15 04:55:51;;;;;;;5.47;4.97;;;19.70;99.90;;;;;;5122590;28;20445;-83
2022/08/15 04:58:18;;;;;;;4.87;4.37;;;19.70;99.90;;;;;;5121411;28;20454;-83
2022/08/15 05:00:53;;;;;;;4.60;4.30;;;19.60;99.90;;;;;;5123340;28;20453;-83
2022/08/15 05:03:20;;;;;;;5.20;4.70;;;19.60;99.90;;;;;;5123326;28;20441;-83
2022/08/15 05:05:51;;;;;;;5.43;4.90;;;19.60;99.90;;;;;;5122694;28;20468;-83
2022/08/15 05:08:19;;;;;;;3.47;3.27;;;19.50;99.90;;;;;;5122451;28;20883;-83
2022/08/15 05:10:54;;;;;;;3.90;3.60;;;19.50;99.90;;;;;;5121935;28;20453;-83
2022/08/15 05:13:23;;;;;;;5.37;4.80;;;19.50;99.90;;;;;;5121377;28;20478;-83
2022/08/15 05:15:51;;;;;;;4.63;4.23;;;19.60;99.90;;;;;;5121851;28;20460;-83
2022/08/15 05:18:18;;;;;;;4.23;3.83;;;19.60;99.90;;;;;;5122568;28;20530;-83
2022/08/15 05:20:45;;;;;;;3.50;3.30;;;19.60;99.90;;;;;;5121907;28;20821;-83
2022/08/15 05:23:15;;;;;;;3.70;3.40;;;19.60;99.90;;;;;;5122106;28;20473;-83
2022/08/15 05:25:45;;;;;;;4.30;4.00;;;19.70;99.90;;;;;;5120922;28;20483;-82
2022/08/15 05:28:14;;;;;;;3.97;3.57;;;19.50;99.90;;;;;;5122099;28;20453;-83
2022/08/15 05:30:41;;;;;;;3.40;3.20;;;19.50;99.90;;;;;;5121838;28;20450;-83
2022/08/15 05:33:11;;;;;;;5.13;3.63;;;19.50;99.90;;;;;;5122667;28;20490;-83
2022/08/15 05:35:41;;;;;;;4.10;3.60;;;19.50;99.90;;;;;;5120790;28;20496;-83
2022/08/15 05:38:14;;;;;;;5.80;3.50;;;19.50;99.90;;;;;;5122084;28;20502;-83
2022/08/15 05:40:53;;;;;;;4.10;3.07;;;19.40;99.90;;;;;;5122164;28;20551;-82
2022/08/15 05:43:30;;;;;;;4.40;4.00;;;19.20;99.90;;;;;;5119451;28;20457;-83
2022/08/15 05:46:00;;;;;;;3.50;3.30;;;19.20;99.90;;;;;;5119604;28;20971;-83
2022/08/15 05:48:32;;;;;;;3.80;3.47;;;19.20;99.90;;;;;;5118113;28;20480;-83
2022/08/15 05:51:07;;;;;;;4.37;3.97;;;19.20;99.90;;;;;;5119892;28;20447;-83
2022/08/15 05:53:50;;;;;;;3.03;2.80;;;19.20;99.90;;;;;;5100441;28;20533;-83
2022/08/15 05:56:25;;;;;;;3.17;2.97;;;19.30;99.90;;;;;;5101634;28;20451;-83
2022/08/15 05:58:56;;;;;;;3.73;3.37;;;19.30;99.90;;;;;;5120621;28;20441;-83
2022/08/15 06:01:29;;;;;;;4.00;3.70;;;19.50;99.90;;;;;;5120631;28;20449;-83
2022/08/15 06:04:03;;;;;;;4.33;3.40;;;19.60;99.90;;;;;;5120809;28;20560;-83
2022/08/15 06:06:35;;;;;;;3.80;3.37;;;19.80;99.90;;;;;;5121097;28;20449;-83
2022/08/15 06:09:05;;;;;;;5.70;3.77;;;19.70;99.90;;;;;;5120223;28;20456;-82
2022/08/15 06:11:41;;;;;;;3.23;2.90;;;19.70;99.90;;;;;;5116324;28;20456;-84
2022/08/15 06:14:21;;;;;;;4.87;3.70;;;19.70;99.90;;;;;;5116625;28;20504;-83
2022/08/15 06:16:54;;;;;;;3.53;3.23;;;19.70;99.90;;;;;;5120095;28;20457;-82
2022/08/15 06:19:25;;;;;;;3.70;3.40;;;19.80;99.90;;;;;;5121796;28;20461;-83
2022/08/15 06:21:57;;;;;;;3.33;3.03;;;19.80;99.90;;;;;;5123701;28;20448;-83
2022/08/15 06:24:32;;;;;;;4.13;3.07;;;19.80;99.90;;;;;;5121530;28;20478;-83
2022/08/15 06:27:06;;;;;;;2.70;2.50;;;19.90;99.90;;;;;;5120958;28;20450;-84
2022/08/15 06:29:50;;;;;;;3.47;3.27;;;19.90;99.90;;;;;;5120179;28;20455;-82
2022/08/15 06:32:23;;;;;;;3.43;3.10;;;19.80;99.90;;;;;;5118132;28;20482;-83
2022/08/15 06:34:59;;;;;;;3.40;3.13;;;20.00;99.90;;;;;;5120215;28;20465;-83
2022/08/15 06:37:31;;;;;;;3.13;2.93;;;20.00;99.90;;;;;;5119428;28;20458;-83
2022/08/15 06:40:08;;;;;;;3.40;3.10;;;20.10;99.90;;;;;;5119974;28;20435;-84
2022/08/15 06:42:39;;;;;;;3.40;2.30;;;20.10;99.90;;;;;;5120084;28;20443;-83
2022/08/15 06:45:11;;;;;;;2.70;2.50;;;20.10;99.90;;;;;;5119582;28;20479;-84
2022/08/15 06:47:39;;;;;;;2.83;2.63;;;20.00;99.90;;;;;;5118563;28;20533;-83
2022/08/15 06:50:14;;;;;;;2.20;2.10;;;19.80;99.90;;;;;;5118719;28;20463;-83
2022/08/15 06:52:44;;;;;;;3.03;2.83;;;19.80;99.90;;;;;;5118711;28;20471;-83
2022/08/15 06:55:11;;;;;;;3.33;3.10;;;19.80;99.90;;;;;;5119037;28;20473;-83
2022/08/15 06:57:48;;;;;;;3.13;2.93;;;19.80;99.90;;;;;;5118651;28;20456;-83
2022/08/15 07:00:26;;;;;;;3.10;2.90;;;19.80;99.90;;;;;;5119416;28;20453;-84
2022/08/15 07:03:05;;;;;;;4.40;3.90;;;19.70;99.90;;;;;;5123745;28;20443;-83
2022/08/15 07:05:42;;;;;;;2.90;2.70;;;19.70;99.90;;;;;;5102875;28;21108;-84
2022/08/15 07:08:16;;;;;;;4.73;3.00;;;19.80;99.90;;;;;;5104135;28;20444;-83
2022/08/15 07:10:47;;;;;;;2.77;2.57;;;19.80;99.90;;;;;;5116147;28;20973;-84
2022/08/15 07:13:20;;;;;;;2.90;2.70;;;19.90;99.90;;;;;;5124021;28;20490;-84
2022/08/15 07:15:55;;;;;;;3.57;3.23;;;20.10;99.90;;;;;;5122511;28;20475;-83
2022/08/15 07:18:30;;;;;;;3.83;3.53;;;20.30;99.90;;;;;;5122589;28;20462;-84
2022/08/15 07:21:01;;;;;;;3.57;3.37;;;20.40;99.90;;;;;;5121775;28;20454;-83
2022/08/15 07:23:30;;;;;;;2.30;2.20;;;20.70;99.90;;;;;;5121546;28;20459;-83
2022/08/15 07:26:02;;;;;;;3.33;3.03;;;20.90;99.90;;;;;;5121254;28;20939;-83
2022/08/15 07:28:34;;;;;;;2.30;2.10;;;21.00;99.90;;;;;;5121295;28;20519;-83
2022/08/15 07:31:09;;;;;;;3.60;3.00;;;21.10;99.90;;;;;;5122179;28;20446;-84
2022/08/15 07:33:41;;;;;;;2.83;2.50;;;21.20;99.90;;;;;;5121653;28;20479;-83
2022/08/15 07:36:15;;;;;;;2.60;2.40;;;21.20;99.90;;;;;;5122232;28;20451;-84
2022/08/15 07:38:42;;;;;;;2.90;2.70;;;21.40;99.90;;;;;;5121140;28;20449;-84
2022/08/15 07:41:16;;;;;;;3.13;2.93;;;21.50;99.90;;;;;;5120965;28;20445;-83
2022/08/15 07:43:45;;;;;;;2.17;2.07;;;21.60;99.90;;;;;;5108755;28;20833;-84
2022/08/15 07:46:14;;;;;;;4.50;2.53;;;21.50;99.90;;;;;;5103791;28;20457;-84
2022/08/15 07:48:42;;;;;;;3.57;2.90;;;21.60;99.70;;;;;;5122766;28;20821;-84
2022/08/15 07:51:25;;;;;;;3.77;2.80;;;21.70;99.60;;;;;;5122449;28;20468;-84
2022/08/15 07:53:56;;;;;;;2.50;2.30;;;21.90;99.60;;;;;;5121881;28;20564;-83
2022/08/15 07:56:25;;;;;;;2.40;2.20;;;22.20;99.10;;;;;;5121004;28;20460;-82
2022/08/15 07:58:57;;;;;;;2.30;2.10;;;22.20;98.10;;;;;;5121969;28;20449;-82
2022/08/15 08:01:28;;;;;;;4.70;2.13;;;22.10;97.70;;;;;;5121025;28;20449;-84
2022/08/15 08:03:59;;;;;;;2.30;2.00;;;22.00;97.80;;;;;;5112749;28;20492;-82
2022/08/15 08:06:32;;;;;;;2.27;2.17;;;22.00;97.40;;;;;;5111924;28;20502;-80
2022/08/15 08:09:08;;;;;;;2.73;2.57;;;22.00;97.40;;;;;;5101058;28;20450;-84
2022/08/15 08:11:44;;;;;;;2.30;2.07;;;21.80;97.60;;;;;;5111250;28;20446;-85
2022/08/15 08:14:21;;;;;;;2.37;2.00;;;21.70;97.80;;;;;;5111432;28;20490;-85
2022/08/15 08:16:53;;;;;;;2.33;2.17;;;21.80;97.80;;;;;;5119895;28;20449;-85
2022/08/15 08:19:28;;;;;;;2.10;1.87;;;21.70;97.50;;;;;;5121633;28;20430;-80
2022/08/15 08:22:02;;;;;;;2.40;2.30;;;21.90;97.50;;;;;;5117158;28;20458;-81
2022/08/15 08:24:37;;;;;;;2.00;1.60;;;22.00;97.90;;;;;;5118109;28;20476;-81
2022/08/15 08:27:11;;;;;;;1.90;1.80;;;21.90;96.80;;;;;;5120799;28;20449;-81
2022/08/15 08:29:47;;;;;;;2.10;1.87;;;21.90;96.80;;;;;;5122799;28;20445;-81
2022/08/15 08:32:20;;;;;;;2.63;2.00;;;22.00;96.60;;;;;;5121907;28;20456;-81
2022/08/15 08:34:53;;;;;;;2.40;1.80;;;22.10;96.60;;;;;;5122536;28;20481;-81
2022/08/15 08:37:26;;;;;;;2.33;2.13;;;22.40;96.70;;;;;;5120981;28;20454;-81
2022/08/15 08:41:24;;;;;;;1.70;1.60;;;22.50;96.20;;;;;;5120617;28;20867;-81
2022/08/15 08:42:50;;;;;;;2.13;2.03;;;22.50;95.90;;;;;;5119977;28;20498;-81
2022/08/15 08:45:25;;;;;;;2.07;1.97;;;22.60;95.80;;;;;;5050105;23;20497;-82
2022/08/15 08:48:15;;;;;;;2.30;2.20;;;22.70;95.60;;;;;;4963457;29;20780;-84
2022/08/15 08:50:50;;;;;;;2.60;2.10;;;22.90;94.20;;;;;;4963748;29;20465;-82
2022/08/15 08:53:28;;;;;;;2.00;1.80;;;22.90;94.40;;;;;;4963632;29;20499;-83
2022/08/15 08:55:58;;;;;;;2.60;2.33;;;22.90;94.10;;;;;;4963800;28;20477;-84
2022/08/15 08:58:30;;;;;;;2.20;2.03;;;23.10;94.40;;;;;;4963720;29;20485;-84
2022/08/15 09:00:59;;;;;;;2.00;1.80;;;23.20;93.00;;;;;;4963299;29;20463;-84
2022/08/15 09:03:32;;;;;;;2.20;2.10;;;23.20;92.70;;;;;;4964712;29;20455;-84
2022/08/15 09:06:00;;;;;;;1.87;1.77;;;23.10;91.50;;;;;;4963033;28;20476;-84
2022/08/15 09:08:33;;;;;;;1.93;1.83;;;23.10;91.60;;;;;;4962950;29;20464;-83
2022/08/15 09:11:05;;;;;;;1.90;1.80;;;23.30;91.90;;;;;;4963207;29;20977;-83
2022/08/15 09:13:34;;;;;;;3.60;3.40;;;23.50;91.40;;;;;;4962215;29;20489;-83
2022/08/15 09:16:10;;;;;;;2.13;1.90;;;23.50;91.30;;;;;;4963608;28;20475;-83
2022/08/15 09:18:43;;;;;;;2.07;1.83;;;23.70;91.10;;;;;;4961177;29;20453;-83
2022/08/15 09:21:10;;;;;;;1.90;1.80;;;24.00;90.00;;;;;;4960945;29;20477;-82
2022/08/15 09:23:42;;;;;;;2.00;1.90;;;24.40;87.80;;;;;;4959965;28;20550;-86
2022/08/15 09:26:14;;;;;;;2.10;2.00;;;24.50;86.10;;;;;;4958722;28;20841;-83
2022/08/15 09:28:45;;;;;;;2.10;2.00;;;24.70;86.20;;;;;;4958543;29;20460;-86
2022/08/15 09:31:16;;;;;;;2.03;1.93;;;25.00;85.60;;;;;;4961011;29;20470;-85
2022/08/15 09:34:14;;;;;;;3.00;2.10;;;24.90;84.80;;;;;;4961995;29;20476;-86
2022/08/15 09:37:08;;;;;;;2.10;2.00;;;24.90;82.80;;;;;;4960625;29;20456;-83
2022/08/15 09:40:02;;;;;;;2.30;2.20;;;24.90;82.30;;;;;;4960258;29;20470;-83
2022/08/15 09:42:50;;;;;;;2.07;1.97;;;25.00;81.70;;;;;;4960147;29;20462;-83
2022/08/15 09:45:32;;;;;;;1.93;1.80;;;25.20;80.00;;;;;;4959921;28;20479;-84
2022/08/15 09:48:15;;;;;;;1.90;1.80;;;25.20;79.60;;;;;;4959898;29;20857;-84
2022/08/15 09:50:58;;;;;;;2.80;2.60;;;25.10;79.50;;;;;;4961657;29;20459;-84
2022/08/15 09:53:39;;;;;;;2.10;2.00;;;25.10;79.40;;;;;;4962002;29;20495;-83
2022/08/15 09:56:12;;;;;;;2.90;2.70;;;25.20;79.00;;;;;;4956004;29;20906;-85
2022/08/15 09:58:52;;;;;;;2.60;2.40;;;25.40;79.10;;;;;;4960117;28;20463;-85
2022/08/15 10:01:23;;;;;;;2.60;2.40;;;25.60;78.10;;;;;;4959898;29;20461;-83
2022/08/15 10:03:59;;;;;;;2.73;2.53;;;25.60;75.60;;;;;;4941198;28;20454;-83
2022/08/15 10:06:28;;;;;;;2.03;1.93;;;25.60;74.90;;;;;;4940340;29;20957;-82
2022/08/15 10:09:12;;;;;;;2.10;2.00;;;25.60;74.70;;;;;;4940260;29;20497;-83
2022/08/15 10:12:06;;;;;;;2.20;2.10;;;25.70;74.10;;;;;;4941128;29;20469;-84
2022/08/15 10:14:49;;;;;;;2.03;1.93;;;26.00;73.50;;;;;;4940932;29;20498;-82
2022/08/15 10:17:37;;;;;;;2.60;2.40;;;26.10;72.50;;;;;;4957873;29;20549;-82
2022/08/15 10:20:38;;;;;;;2.30;2.20;;;26.10;71.70;;;;;;4959618;29;20458;-81
2022/08/15 10:23:13;;;;;;;1.90;1.80;;;26.40;70.70;;;;;;4966759;29;20545;-80
2022/08/15 10:25:42;;;;;;;2.90;2.60;;;26.60;69.50;;;;;;4957757;28;20893;-85
2022/08/15 10:28:23;;;;;;;2.50;2.40;;;26.60;66.30;;;;;;4956083;29;20457;-83
2022/08/15 10:31:25;;;;;;;2.43;2.33;;;26.60;65.40;;;;;;4957095;29;20454;-83
2022/08/15 10:33:53;;;;;;;2.07;1.97;;;26.70;65.40;;;;;;4955974;29;20859;-82
2022/08/15 10:36:26;;;;;;;2.20;2.10;;;26.90;64.60;;;;;;4956475;29;20489;-82
2022/08/15 10:39:03;;;;;;;2.50;2.23;;;27.20;62.70;;;;;;4956615;29;20462;-83
2022/08/15 10:41:41;;;;;;;3.80;2.90;;;27.00;62.80;;;;;;4956229;29;20454;-81
2022/08/15 10:44:20;;;;;;;2.40;2.30;;;27.00;63.30;;;;;;4956096;28;20511;-83
2022/08/15 10:46:59;;;;;;;2.30;2.20;;;27.30;63.80;;;;;;4954160;28;20460;-82
2022/08/15 10:49:35;;;;;;;3.20;3.00;;;27.50;61.80;;;;;;4952924;29;20456;-82
2022/08/15 10:52:26;;;;;;;3.20;2.90;;;27.80;61.00;;;;;;4952286;29;20546;-82
2022/08/15 10:55:23;;;;;;;2.43;2.23;;;27.80;62.80;;;;;;4953787;28;20484;-83
2022/08/15 10:57:58;;;;;;;2.93;2.73;;;28.00;63.10;;;;;;4956281;28;20461;-82
2022/08/15 11:00:43;;;;;;;2.33;2.23;;;28.30;59.70;;;;;;4954060;29;20567;-83
2022/08/15 11:03:18;;;;;;;2.33;2.20;;;28.30;59.30;;;;;;4953711;29;20455;-83
2022/08/15 11:05:55;;;;;;;3.07;2.73;;;28.00;59.50;;;;;;4955683;28;21064;-85
2022/08/15 11:08:24;;;;;;;2.13;2.03;;;27.90;60.90;;;;;;4956071;29;20459;-86
2022/08/15 11:10:52;;;;;;;3.40;3.10;;;28.30;60.00;;;;;;4953986;29;20472;-86
2022/08/15 11:13:24;;;;;;;2.77;2.57;;;28.60;57.70;;;;;;4949028;29;20457;-85
2022/08/15 11:15:54;;;;;;;2.60;2.40;;;28.80;57.30;;;;;;4944714;28;20473;-84
2022/08/15 11:18:33;;;;;;;3.07;2.77;;;28.70;57.10;;;;;;4938502;29;20917;-85
2022/08/15 11:21:24;;;;;;;2.10;2.00;;;28.80;56.20;;;;;;4939275;28;20985;-84
2022/08/15 11:23:55;;;;;;;2.60;2.50;;;28.70;55.80;;;;;;4944662;29;20491;-85
2022/08/15 11:26:27;;;;;;;2.53;2.40;;;28.50;55.50;;;;;;4954552;29;20456;-82
2022/08/15 11:29:08;;;;;;;2.60;2.40;;;28.60;55.50;;;;;;4954295;29;20967;-82
2022/08/15 11:31:44;;;;;;;2.70;2.60;;;28.50;56.10;;;;;;4954573;29;20462;-82
2022/08/15 11:34:26;;;;;;;2.90;2.70;;;28.60;56.30;;;;;;4955034;28;20453;-84
2022/08/15 11:36:59;;;;;;;2.63;2.50;;;28.70;55.60;;;;;;4954746;29;20464;-84
2022/08/15 11:39:49;;;;;;;3.33;3.13;;;28.70;55.80;;;;;;4953026;29;20468;-85
2022/08/15 11:42:26;;;;;;;2.90;2.70;;;28.50;55.60;;;;;;4954759;28;20478;-84
2022/08/15 11:45:21;;;;;;;3.00;2.70;;;28.20;56.60;;;;;;4951583;28;20486;-84
2022/08/15 11:47:57;;;;;;;5.13;2.63;;;27.80;58.30;;;;;;4955082;29;20517;-85
2022/08/15 11:50:26;;;;;;;2.73;2.53;;;28.00;58.20;;;;;;4957617;29;20494;-80
2022/08/15 11:53:04;;;;;;;2.77;2.53;;;28.10;57.70;;;;;;4956251;29;20455;-84
2022/08/15 11:55:45;;;;;;;2.80;2.37;;;28.10;56.50;;;;;;4957900;28;20475;-82
2022/08/15 11:58:22;;;;;;;3.80;2.43;;;28.20;56.90;;;;;;4942757;29;20479;-81
2022/08/15 12:00:50;;;;;;;4.43;2.93;;;28.20;56.80;;;;;;4957769;29;20953;-81
2022/08/15 12:03:20;;;;;;;2.70;2.50;;;28.50;57.40;;;;;;4958287;29;20454;-81
2022/08/15 12:05:48;;;;;;;2.30;2.20;;;28.90;55.90;;;;;;4958622;28;20488;-82
2022/08/15 12:08:23;;;;;;;3.70;2.50;;;29.10;55.60;;;;;;4959008;29;20468;-82
2022/08/15 12:11:06;;;;;;;2.27;2.17;;;29.20;54.80;;;;;;4958868;29;20458;-85
2022/08/15 12:13:34;;;;;;;2.60;2.50;;;29.00;54.60;;;;;;4944871;29;20453;-81
2022/08/15 12:16:01;;;;;;;2.87;2.67;;;29.20;55.10;;;;;;4958939;28;20476;-82
2022/08/15 12:18:33;;;;;;;3.40;3.13;;;29.70;55.20;;;;;;4959092;29;20479;-81
2022/08/15 12:21:11;;;;;;;2.70;2.50;;;30.40;53.50;;;;;;4958450;29;20453;-82
2022/08/15 12:23:52;;;;;;;2.10;2.00;;;30.50;52.90;;;;;;4958831;29;20456;-88
2022/08/15 12:26:22;;;;;;;3.87;2.70;;;31.10;53.80;;;;;;4958748;29;20450;-80
2022/08/15 12:28:48;;;;;;;3.03;2.83;;;31.10;52.30;;;;;;4958852;29;20451;-86
2022/08/15 12:31:24;;;;;;;2.97;2.77;;;31.00;51.00;;;;;;4963595;29;20459;-83
2022/08/15 12:34:02;;;;;;;3.10;2.70;;;31.00;51.30;;;;;;4960821;29;20456;-85
2022/08/15 12:36:29;;;;;;;3.00;2.80;;;31.00;51.70;;;;;;4956951;29;20469;-84
2022/08/15 12:38:56;;;;;;;2.87;2.67;;;30.80;51.90;;;;;;4957307;29;20456;-84
2022/08/15 12:41:25;;;;;;;3.00;2.80;;;31.20;52.80;;;;;;4957410;29;20456;-82
2022/08/15 12:43:52;;;;;;;2.80;2.60;;;32.00;51.60;;;;;;4956423;29;20463;-81
2022/08/15 12:46:19;;;;;;;2.73;2.53;;;32.90;49.10;;;;;;4956648;29;20461;-84
2022/08/15 12:48:47;;;;;;;3.00;2.80;;;33.20;48.90;;;;;;4955677;29;20471;-80
2022/08/15 12:51:13;;;;;;;2.63;2.53;;;33.40;47.80;;;;;;4957366;29;20453;-83
2022/08/15 12:53:40;;;;;;;3.13;2.93;;;33.40;47.80;;;;;;4957278;29;20460;-84
2022/08/15 12:56:08;;;;;;;3.13;2.93;;;33.30;47.00;;;;;;4956377;28;20472;-82
2022/08/15 12:58:37;;;;;;;3.43;3.23;;;32.90;45.70;;;;;;4955901;29;20466;-84
2022/08/15 13:01:07;;;;;;;2.60;2.50;;;32.50;46.00;;;;;;4956406;29;20906;-83
2022/08/15 13:03:34;;;;;;;3.40;3.13;;;32.10;46.80;;;;;;4956600;28;20464;-83
2022/08/15 13:06:13;;;;;;;3.90;3.70;;;31.70;46.70;;;;;;4956128;28;20502;-86
2022/08/15 13:11:43;;;;;;;3.37;3.10;;;29.80;51.50;;;;;;4960639;29;20457;-83
2022/08/15 13:14:12;;;;;;;2.50;2.40;;;29.50;53.10;;;;;;4959135;28;20458;-83
2022/08/15 13:16:39;;;;;;;4.50;4.20;;;29.20;53.60;;;;;;4959613;29;20460;-82